sensor_id;sensor_type;location;lat;lon;timestamp;P1;durP1;ratioP1;P2;durP2;ratioP2
29302;SDS011;60019;45.556;12.004;2023-02-01T00:04:33;87.53;;;48.28;;
29302;SDS011;60019;45.556;12.004;2023-02-01T00:10:35;82.47;;;47.42;;
29302;SDS011;60019;45.556;12.004;2023-02-01T00:16:37;75.30;;;46.20;;
29302;SDS011;60019;45.556;12.004;2023-02-01T00:22:39;76.95;;;45.00;;
29302;SDS011;60019;45.556;12.004;2023-02-01T00:28:41;81.50;;;45.90;;
29302;SDS011;60019;45.556;12.004;2023-02-01T00:34:42;72.63;;;42.85;;
29302;SDS011;60019;45.556;12.004;2023-02-01T00:40:44;76.20;;;44.45;;
29302;SDS011;60019;45.556;12.004;2023-02-01T00:46:46;77.05;;;44.50;;
29302;SDS011;60019;45.556;12.004;2023-02-01T00:52:48;68.35;;;41.75;;
29302;SDS011;60019;45.556;12.004;2023-02-01T00:58:50;76.57;;;42.78;;
29302;SDS011;60019;45.556;12.004;2023-02-01T01:04:52;74.13;;;42.85;;
29302;SDS011;60019;45.556;12.004;2023-02-01T01:10:54;73.10;;;42.97;;
29302;SDS011;60019;45.556;12.004;2023-02-01T01:16:56;70.65;;;41.78;;
29302;SDS011;60019;45.556;12.004;2023-02-01T01:22:58;72.97;;;41.40;;
29302;SDS011;60019;45.556;12.004;2023-02-01T01:29:00;67.28;;;40.75;;
29302;SDS011;60019;45.556;12.004;2023-02-01T01:35:02;67.90;;;39.60;;
29302;SDS011;60019;45.556;12.004;2023-02-01T01:41:04;65.70;;;39.03;;
29302;SDS011;60019;45.556;12.004;2023-02-01T01:47:06;73.15;;;41.70;;
29302;SDS011;60019;45.556;12.004;2023-02-01T01:53:09;71.53;;;41.28;;
29302;SDS011;60019;45.556;12.004;2023-02-01T01:59:13;67.30;;;39.63;;
29302;SDS011;60019;45.556;12.004;2023-02-01T02:05:16;66.22;;;37.53;;
29302;SDS011;60019;45.556;12.004;2023-02-01T02:11:19;66.03;;;37.10;;
29302;SDS011;60019;45.556;12.004;2023-02-01T02:17:25;65.43;;;37.45;;
29302;SDS011;60019;45.556;12.004;2023-02-01T02:48:30;62.65;;;35.78;;
29302;SDS011;60019;45.556;12.004;2023-02-01T02:54:43;63.15;;;35.70;;
29302;SDS011;60019;45.556;12.004;2023-02-01T03:00:51;61.60;;;35.60;;
29302;SDS011;60019;45.556;12.004;2023-02-01T03:13:55;58.40;;;34.03;;
29302;SDS011;60019;45.556;12.004;2023-02-01T03:20:01;59.38;;;33.88;;
29302;SDS011;60019;45.556;12.004;2023-02-01T03:26:06;61.30;;;35.15;;
29302;SDS011;60019;45.556;12.004;2023-02-01T03:32:12;64.50;;;34.08;;
29302;SDS011;60019;45.556;12.004;2023-02-01T03:38:18;57.25;;;33.47;;
29302;SDS011;60019;45.556;12.004;2023-02-01T03:44:26;61.38;;;35.15;;
29302;SDS011;60019;45.556;12.004;2023-02-01T03:50:32;56.72;;;31.30;;
29302;SDS011;60019;45.556;12.004;2023-02-01T03:56:37;56.80;;;32.45;;
29302;SDS011;60019;45.556;12.004;2023-02-01T04:02:45;62.40;;;32.67;;
29302;SDS011;60019;45.556;12.004;2023-02-01T04:08:47;62.45;;;34.42;;
29302;SDS011;60019;45.556;12.004;2023-02-01T04:14:49;62.70;;;36.30;;
29302;SDS011;60019;45.556;12.004;2023-02-01T04:20:50;63.25;;;35.25;;
29302;SDS011;60019;45.556;12.004;2023-02-01T04:26:52;59.72;;;34.30;;
29302;SDS011;60019;45.556;12.004;2023-02-01T04:32:54;60.75;;;34.60;;
29302;SDS011;60019;45.556;12.004;2023-02-01T04:38:56;55.58;;;31.40;;
29302;SDS011;60019;45.556;12.004;2023-02-01T04:44:57;69.03;;;36.72;;
29302;SDS011;60019;45.556;12.004;2023-02-01T04:50:59;61.22;;;34.40;;
29302;SDS011;60019;45.556;12.004;2023-02-01T04:57:01;60.55;;;34.47;;
29302;SDS011;60019;45.556;12.004;2023-02-01T05:03:03;52.22;;;30.75;;
29302;SDS011;60019;45.556;12.004;2023-02-01T05:09:04;54.25;;;30.58;;
29302;SDS011;60019;45.556;12.004;2023-02-01T05:15:06;53.50;;;31.27;;
29302;SDS011;60019;45.556;12.004;2023-02-01T05:21:08;53.85;;;32.58;;
29302;SDS011;60019;45.556;12.004;2023-02-01T05:27:09;50.22;;;29.63;;
29302;SDS011;60019;45.556;12.004;2023-02-01T05:33:11;49.50;;;28.92;;
29302;SDS011;60019;45.556;12.004;2023-02-01T05:39:13;47.38;;;27.23;;
29302;SDS011;60019;45.556;12.004;2023-02-01T05:45:15;47.95;;;28.15;;
29302;SDS011;60019;45.556;12.004;2023-02-01T05:51:17;51.30;;;28.65;;
29302;SDS011;60019;45.556;12.004;2023-02-01T05:57:19;45.03;;;27.33;;
29302;SDS011;60019;45.556;12.004;2023-02-01T06:03:20;44.08;;;28.85;;
29302;SDS011;60019;45.556;12.004;2023-02-01T06:09:22;49.55;;;29.58;;
29302;SDS011;60019;45.556;12.004;2023-02-01T06:15:24;64.97;;;41.38;;
29302;SDS011;60019;45.556;12.004;2023-02-01T06:21:25;62.60;;;37.67;;
29302;SDS011;60019;45.556;12.004;2023-02-01T06:27:27;62.80;;;36.70;;
29302;SDS011;60019;45.556;12.004;2023-02-01T06:33:29;56.63;;;33.90;;
29302;SDS011;60019;45.556;12.004;2023-02-01T06:39:31;53.38;;;31.15;;
29302;SDS011;60019;45.556;12.004;2023-02-01T06:45:33;47.20;;;27.73;;
29302;SDS011;60019;45.556;12.004;2023-02-01T06:51:34;44.80;;;26.92;;
29302;SDS011;60019;45.556;12.004;2023-02-01T06:57:36;48.10;;;29.48;;
29302;SDS011;60019;45.556;12.004;2023-02-01T07:03:38;43.40;;;26.27;;
29302;SDS011;60019;45.556;12.004;2023-02-01T07:09:40;43.83;;;27.40;;
29302;SDS011;60019;45.556;12.004;2023-02-01T07:15:42;42.30;;;26.02;;
29302;SDS011;60019;45.556;12.004;2023-02-01T07:21:44;40.40;;;24.95;;
29302;SDS011;60019;45.556;12.004;2023-02-01T07:27:45;44.80;;;27.02;;
29302;SDS011;60019;45.556;12.004;2023-02-01T07:33:48;35.70;;;23.45;;
29302;SDS011;60019;45.556;12.004;2023-02-01T07:39:53;42.22;;;24.67;;
29302;SDS011;60019;45.556;12.004;2023-02-01T07:45:55;41.35;;;24.42;;
29302;SDS011;60019;45.556;12.004;2023-02-01T07:51:57;35.10;;;21.35;;
29302;SDS011;60019;45.556;12.004;2023-02-01T07:57:59;38.58;;;22.98;;
29302;SDS011;60019;45.556;12.004;2023-02-01T08:04:02;39.88;;;23.50;;
29302;SDS011;60019;45.556;12.004;2023-02-01T08:10:04;41.42;;;24.67;;
29302;SDS011;60019;45.556;12.004;2023-02-01T08:16:12;43.20;;;25.42;;
29302;SDS011;60019;45.556;12.004;2023-02-01T08:22:14;42.47;;;25.88;;
29302;SDS011;60019;45.556;12.004;2023-02-01T08:28:16;39.78;;;24.80;;
29302;SDS011;60019;45.556;12.004;2023-02-01T08:34:18;39.40;;;24.00;;
29302;SDS011;60019;45.556;12.004;2023-02-01T08:40:20;44.85;;;24.30;;
29302;SDS011;60019;45.556;12.004;2023-02-01T08:46:22;37.75;;;23.85;;
29302;SDS011;60019;45.556;12.004;2023-02-01T08:52:24;37.95;;;23.35;;
29302;SDS011;60019;45.556;12.004;2023-02-01T08:58:26;38.67;;;24.33;;
29302;SDS011;60019;45.556;12.004;2023-02-01T09:04:28;34.42;;;23.95;;
29302;SDS011;60019;45.556;12.004;2023-02-01T09:10:30;39.10;;;25.67;;
29302;SDS011;60019;45.556;12.004;2023-02-01T09:16:32;43.10;;;26.23;;
29302;SDS011;60019;45.556;12.004;2023-02-01T09:22:34;42.95;;;25.92;;
29302;SDS011;60019;45.556;12.004;2023-02-01T09:28:35;36.33;;;23.85;;
29302;SDS011;60019;45.556;12.004;2023-02-01T09:34:37;40.08;;;24.75;;
29302;SDS011;60019;45.556;12.004;2023-02-01T09:40:39;42.55;;;24.98;;
29302;SDS011;60019;45.556;12.004;2023-02-01T09:46:47;38.67;;;23.38;;
29302;SDS011;60019;45.556;12.004;2023-02-01T10:05:16;37.63;;;22.52;;
29302;SDS011;60019;45.556;12.004;2023-02-01T10:11:35;33.25;;;21.42;;
29302;SDS011;60019;45.556;12.004;2023-02-01T10:18:03;33.08;;;21.45;;
29302;SDS011;60019;45.556;12.004;2023-02-01T10:24:34;36.15;;;21.02;;
29302;SDS011;60019;45.556;12.004;2023-02-01T10:30:47;39.13;;;23.38;;
29302;SDS011;60019;45.556;12.004;2023-02-01T10:42:58;36.10;;;21.60;;
29302;SDS011;60019;45.556;12.004;2023-02-01T10:49:03;33.75;;;21.25;;
29302;SDS011;60019;45.556;12.004;2023-02-01T11:01:36;37.42;;;21.52;;
29302;SDS011;60019;45.556;12.004;2023-02-01T11:07:40;38.80;;;24.13;;
29302;SDS011;60019;45.556;12.004;2023-02-01T11:13:59;35.92;;;21.20;;
29302;SDS011;60019;45.556;12.004;2023-02-01T11:20:16;38.47;;;24.83;;
29302;SDS011;60019;45.556;12.004;2023-02-01T11:26:21;39.60;;;24.02;;
29302;SDS011;60019;45.556;12.004;2023-02-01T11:32:24;40.90;;;24.95;;
29302;SDS011;60019;45.556;12.004;2023-02-01T11:38:28;37.28;;;23.63;;
29302;SDS011;60019;45.556;12.004;2023-02-01T12:36:40;96.20;;;46.63;;
29302;SDS011;60019;45.556;12.004;2023-02-01T12:49:20;68.45;;;37.03;;
29302;SDS011;60019;45.556;12.004;2023-02-01T12:55:41;73.95;;;41.13;;
29302;SDS011;60019;45.556;12.004;2023-02-01T13:01:52;67.50;;;38.20;;
29302;SDS011;60019;45.556;12.004;2023-02-01T13:14:17;63.42;;;35.58;;
29302;SDS011;60019;45.556;12.004;2023-02-01T13:26:35;59.28;;;36.33;;
29302;SDS011;60019;45.556;12.004;2023-02-01T13:39:31;57.38;;;33.67;;
29302;SDS011;60019;45.556;12.004;2023-02-01T13:46:06;61.80;;;34.88;;
29302;SDS011;60019;45.556;12.004;2023-02-01T13:59:00;76.90;;;42.78;;
29302;SDS011;60019;45.556;12.004;2023-02-01T14:17:48;59.58;;;36.25;;
29302;SDS011;60019;45.556;12.004;2023-02-01T14:23:55;62.55;;;37.75;;
29302;SDS011;60019;45.556;12.004;2023-02-01T14:30:01;57.13;;;33.70;;
29302;SDS011;60019;45.556;12.004;2023-02-01T14:36:09;58.03;;;33.38;;
29302;SDS011;60019;45.556;12.004;2023-02-01T14:54:21;53.00;;;30.30;;
29302;SDS011;60019;45.556;12.004;2023-02-01T15:00:26;54.63;;;32.22;;
29302;SDS011;60019;45.556;12.004;2023-02-01T15:06:35;52.50;;;31.73;;
29302;SDS011;60019;45.556;12.004;2023-02-01T15:12:46;48.22;;;29.05;;
29302;SDS011;60019;45.556;12.004;2023-02-01T15:18:50;48.97;;;29.75;;
29302;SDS011;60019;45.556;12.004;2023-02-01T15:25:18;50.17;;;29.95;;
29302;SDS011;60019;45.556;12.004;2023-02-01T15:31:38;54.00;;;30.92;;
29302;SDS011;60019;45.556;12.004;2023-02-01T15:37:42;50.17;;;30.08;;
29302;SDS011;60019;45.556;12.004;2023-02-01T15:43:49;46.58;;;28.60;;
29302;SDS011;60019;45.556;12.004;2023-02-01T15:50:24;47.75;;;29.23;;
29302;SDS011;60019;45.556;12.004;2023-02-01T15:56:28;47.15;;;29.33;;
29302;SDS011;60019;45.556;12.004;2023-02-01T16:02:44;49.75;;;30.77;;
29302;SDS011;60019;45.556;12.004;2023-02-01T16:09:09;46.28;;;29.38;;
29302;SDS011;60019;45.556;12.004;2023-02-01T16:15:12;73.97;;;42.55;;
29302;SDS011;60019;45.556;12.004;2023-02-01T16:21:14;69.97;;;40.00;;
29302;SDS011;60019;45.556;12.004;2023-02-01T16:27:16;75.53;;;38.78;;
29302;SDS011;60019;45.556;12.004;2023-02-01T16:33:18;62.97;;;39.17;;
29302;SDS011;60019;45.556;12.004;2023-02-01T16:39:23;60.92;;;35.55;;
29302;SDS011;60019;45.556;12.004;2023-02-01T16:45:25;65.18;;;38.97;;
29302;SDS011;60019;45.556;12.004;2023-02-01T16:51:28;57.30;;;36.30;;
29302;SDS011;60019;45.556;12.004;2023-02-01T16:57:33;62.08;;;37.33;;
29302;SDS011;60019;45.556;12.004;2023-02-01T17:03:35;54.35;;;34.15;;
29302;SDS011;60019;45.556;12.004;2023-02-01T17:09:37;54.08;;;35.60;;
29302;SDS011;60019;45.556;12.004;2023-02-01T17:15:39;69.68;;;39.58;;
29302;SDS011;60019;45.556;12.004;2023-02-01T17:21:47;70.72;;;38.55;;
29302;SDS011;60019;45.556;12.004;2023-02-01T17:27:56;58.75;;;36.65;;
29302;SDS011;60019;45.556;12.004;2023-02-01T17:33:58;66.03;;;38.63;;
29302;SDS011;60019;45.556;12.004;2023-02-01T17:40:00;71.55;;;40.10;;
29302;SDS011;60019;45.556;12.004;2023-02-01T17:52:08;65.22;;;41.25;;
29302;SDS011;60019;45.556;12.004;2023-02-01T17:58:17;63.83;;;41.35;;
29302;SDS011;60019;45.556;12.004;2023-02-01T18:04:19;63.60;;;40.40;;
29302;SDS011;60019;45.556;12.004;2023-02-01T18:10:22;63.92;;;40.42;;
29302;SDS011;60019;45.556;12.004;2023-02-01T18:16:26;55.55;;;36.28;;
29302;SDS011;60019;45.556;12.004;2023-02-01T18:22:28;143.63;;;79.45;;
29302;SDS011;60019;45.556;12.004;2023-02-01T18:28:31;232.38;;;115.82;;
29302;SDS011;60019;45.556;12.004;2023-02-01T18:34:32;289.73;;;143.95;;
29302;SDS011;60019;45.556;12.004;2023-02-01T18:40:42;189.10;;;95.07;;
29302;SDS011;60019;45.556;12.004;2023-02-01T18:46:50;184.07;;;97.30;;
29302;SDS011;60019;45.556;12.004;2023-02-01T18:52:52;158.63;;;85.72;;
29302;SDS011;60019;45.556;12.004;2023-02-01T18:58:58;147.77;;;80.18;;
29302;SDS011;60019;45.556;12.004;2023-02-01T19:05:00;145.95;;;76.43;;
29302;SDS011;60019;45.556;12.004;2023-02-01T19:11:06;129.40;;;70.43;;
29302;SDS011;60019;45.556;12.004;2023-02-01T19:17:09;121.97;;;68.93;;
29302;SDS011;60019;45.556;12.004;2023-02-01T19:23:12;126.75;;;70.03;;
29302;SDS011;60019;45.556;12.004;2023-02-01T19:29:14;170.13;;;94.13;;
29302;SDS011;60019;45.556;12.004;2023-02-01T19:35:17;143.45;;;79.85;;
29302;SDS011;60019;45.556;12.004;2023-02-01T19:41:20;125.00;;;74.30;;
29302;SDS011;60019;45.556;12.004;2023-02-01T19:47:21;104.82;;;61.25;;
29302;SDS011;60019;45.556;12.004;2023-02-01T19:53:24;91.88;;;55.72;;
29302;SDS011;60019;45.556;12.004;2023-02-01T19:59:27;119.63;;;66.05;;
29302;SDS011;60019;45.556;12.004;2023-02-01T20:05:29;145.93;;;75.68;;
29302;SDS011;60019;45.556;12.004;2023-02-01T20:11:31;147.25;;;74.72;;
29302;SDS011;60019;45.556;12.004;2023-02-01T20:17:33;125.03;;;66.65;;
29302;SDS011;60019;45.556;12.004;2023-02-01T20:23:36;98.72;;;56.50;;
29302;SDS011;60019;45.556;12.004;2023-02-01T20:29:38;94.80;;;56.50;;
29302;SDS011;60019;45.556;12.004;2023-02-01T20:35:44;91.90;;;54.78;;
29302;SDS011;60019;45.556;12.004;2023-02-01T20:41:47;91.40;;;58.30;;
29302;SDS011;60019;45.556;12.004;2023-02-01T20:47:49;97.00;;;57.03;;
29302;SDS011;60019;45.556;12.004;2023-02-01T20:53:52;82.18;;;54.25;;
29302;SDS011;60019;45.556;12.004;2023-02-01T20:59:54;109.45;;;63.67;;
29302;SDS011;60019;45.556;12.004;2023-02-01T21:05:57;156.52;;;89.10;;
29302;SDS011;60019;45.556;12.004;2023-02-01T21:12:00;152.60;;;84.25;;
29302;SDS011;60019;45.556;12.004;2023-02-01T21:18:02;140.48;;;76.20;;
29302;SDS011;60019;45.556;12.004;2023-02-01T21:24:05;105.40;;;64.72;;
29302;SDS011;60019;45.556;12.004;2023-02-01T21:30:08;97.40;;;60.13;;
29302;SDS011;60019;45.556;12.004;2023-02-01T21:36:10;99.57;;;57.15;;
29302;SDS011;60019;45.556;12.004;2023-02-01T21:42:18;96.40;;;58.00;;
29302;SDS011;60019;45.556;12.004;2023-02-01T21:48:21;102.40;;;62.35;;
29302;SDS011;60019;45.556;12.004;2023-02-01T21:54:23;96.00;;;62.55;;
29302;SDS011;60019;45.556;12.004;2023-02-01T22:00:25;97.78;;;61.78;;
29302;SDS011;60019;45.556;12.004;2023-02-01T22:06:32;95.95;;;60.55;;
29302;SDS011;60019;45.556;12.004;2023-02-01T22:12:37;90.83;;;56.30;;
29302;SDS011;60019;45.556;12.004;2023-02-01T22:18:39;149.60;;;83.68;;
29302;SDS011;60019;45.556;12.004;2023-02-01T22:24:40;199.68;;;109.65;;
29302;SDS011;60019;45.556;12.004;2023-02-01T22:30:42;194.95;;;106.38;;
29302;SDS011;60019;45.556;12.004;2023-02-01T22:36:44;156.30;;;89.93;;
29302;SDS011;60019;45.556;12.004;2023-02-01T22:42:48;139.82;;;80.07;;
29302;SDS011;60019;45.556;12.004;2023-02-01T22:48:51;127.45;;;75.18;;
29302;SDS011;60019;45.556;12.004;2023-02-01T22:54:53;115.25;;;67.22;;
29302;SDS011;60019;45.556;12.004;2023-02-01T23:00:55;121.85;;;70.93;;
29302;SDS011;60019;45.556;12.004;2023-02-01T23:06:56;101.13;;;61.88;;
29302;SDS011;60019;45.556;12.004;2023-02-01T23:13:00;104.90;;;60.85;;
29302;SDS011;60019;45.556;12.004;2023-02-01T23:19:01;104.43;;;62.28;;
29302;SDS011;60019;45.556;12.004;2023-02-01T23:25:04;103.18;;;59.28;;
29302;SDS011;60019;45.556;12.004;2023-02-01T23:31:09;95.70;;;57.42;;
29302;SDS011;60019;45.556;12.004;2023-02-01T23:37:12;90.45;;;56.55;;
29302;SDS011;60019;45.556;12.004;2023-02-01T23:43:14;98.65;;;56.60;;
29302;SDS011;60019;45.556;12.004;2023-02-01T23:49:34;95.68;;;53.92;;
29302;SDS011;60019;45.556;12.004;2023-02-01T23:55:36;89.22;;;52.40;;
